sensor_id;sensor_type;location;lat;lon;timestamp;temperature;humidity
23568;DHT22;11962;50.838;4.430;2023-11-19T00:01:31;15.20;99.90
23568;DHT22;11962;50.838;4.430;2023-11-19T00:03:58;15.20;99.90
23568;DHT22;11962;50.838;4.430;2023-11-19T00:06:24;15.20;99.90
23568;DHT22;11962;50.838;4.430;2023-11-19T00:08:51;15.20;99.90
23568;DHT22;11962;50.838;4.430;2023-11-19T00:11:16;15.30;99.90
23568;DHT22;11962;50.838;4.430;2023-11-19T00:13:42;15.30;99.90
23568;DHT22;11962;50.838;4.430;2023-11-19T00:16:08;15.20;99.90
23568;DHT22;11962;50.838;4.430;2023-11-19T00:18:35;15.20;99.90
23568;DHT22;11962;50.838;4.430;2023-11-19T00:21:02;15.20;99.90
23568;DHT22;11962;50.838;4.430;2023-11-19T00:23:28;15.20;99.90
23568;DHT22;11962;50.838;4.430;2023-11-19T00:25:54;15.20;99.90
23568;DHT22;11962;50.838;4.430;2023-11-19T00:28:20;15.20;99.90
23568;DHT22;11962;50.838;4.430;2023-11-19T00:30:45;15.20;99.90
23568;DHT22;11962;50.838;4.430;2023-11-19T00:33:11;15.20;99.90
23568;DHT22;11962;50.838;4.430;2023-11-19T00:35:37;15.30;99.90
23568;DHT22;11962;50.838;4.430;2023-11-19T00:38:02;15.30;99.90
23568;DHT22;11962;50.838;4.430;2023-11-19T00:40:29;15.30;99.90
23568;DHT22;11962;50.838;4.430;2023-11-19T00:42:55;15.30;99.90
23568;DHT22;11962;50.838;4.430;2023-11-19T00:45:20;15.20;99.90
23568;DHT22;11962;50.838;4.430;2023-11-19T00:47:46;15.20;99.90
23568;DHT22;11962;50.838;4.430;2023-11-19T00:50:12;15.20;99.90
23568;DHT22;11962;50.838;4.430;2023-11-19T00:52:38;15.20;99.90
23568;DHT22;11962;50.838;4.430;2023-11-19T00:55:05;15.20;99.90
23568;DHT22;11962;50.838;4.430;2023-11-19T00:57:32;15.20;99.90
23568;DHT22;11962;50.838;4.430;2023-11-19T01:00:01;15.20;99.90
23568;DHT22;11962;50.838;4.430;2023-11-19T01:02:26;15.20;99.90
23568;DHT22;11962;50.838;4.430;2023-11-19T01:04:52;15.20;99.90
23568;DHT22;11962;50.838;4.430;2023-11-19T01:07:18;15.20;99.90
23568;DHT22;11962;50.838;4.430;2023-11-19T01:09:43;15.20;99.90
23568;DHT22;11962;50.838;4.430;2023-11-19T01:12:09;15.20;99.90
23568;DHT22;11962;50.838;4.430;2023-11-19T01:14:36;15.10;99.90
23568;DHT22;11962;50.838;4.430;2023-11-19T01:17:01;15.20;99.90
23568;DHT22;11962;50.838;4.430;2023-11-19T01:19:27;15.20;99.90
23568;DHT22;11962;50.838;4.430;2023-11-19T01:21:54;15.20;99.90
23568;DHT22;11962;50.838;4.430;2023-11-19T01:24:20;15.30;99.90
23568;DHT22;11962;50.838;4.430;2023-11-19T01:26:46;15.30;99.90
23568;DHT22;11962;50.838;4.430;2023-11-19T01:29:12;15.40;99.90
23568;DHT22;11962;50.838;4.430;2023-11-19T01:31:42;15.30;99.90
23568;DHT22;11962;50.838;4.430;2023-11-19T01:34:08;15.40;99.90
23568;DHT22;11962;50.838;4.430;2023-11-19T01:36:34;15.40;99.90
23568;DHT22;11962;50.838;4.430;2023-11-19T01:39:00;15.30;99.90
23568;DHT22;11962;50.838;4.430;2023-11-19T01:41:26;15.30;99.90
23568;DHT22;11962;50.838;4.430;2023-11-19T01:43:51;15.30;99.90
23568;DHT22;11962;50.838;4.430;2023-11-19T01:46:17;15.30;99.90
23568;DHT22;11962;50.838;4.430;2023-11-19T01:48:45;15.20;99.90
23568;DHT22;11962;50.838;4.430;2023-11-19T01:51:15;15.20;99.90
23568;DHT22;11962;50.838;4.430;2023-11-19T01:53:43;15.10;99.90
23568;DHT22;11962;50.838;4.430;2023-11-19T01:56:11;15.00;99.90
23568;DHT22;11962;50.838;4.430;2023-11-19T01:58:40;15.10;99.90
23568;DHT22;11962;50.838;4.430;2023-11-19T02:01:07;15.10;99.90
23568;DHT22;11962;50.838;4.430;2023-11-19T02:03:33;15.00;99.90
23568;DHT22;11962;50.838;4.430;2023-11-19T02:06:03;15.00;99.90
23568;DHT22;11962;50.838;4.430;2023-11-19T02:08:29;15.00;99.90
23568;DHT22;11962;50.838;4.430;2023-11-19T02:10:55;15.00;99.90
23568;DHT22;11962;50.838;4.430;2023-11-19T02:13:26;15.10;99.90
23568;DHT22;11962;50.838;4.430;2023-11-19T02:15:52;15.00;99.90
23568;DHT22;11962;50.838;4.430;2023-11-19T02:18:26;14.90;99.90
23568;DHT22;11962;50.838;4.430;2023-11-19T02:20:57;14.90;99.90
23568;DHT22;11962;50.838;4.430;2023-11-19T02:23:26;14.80;99.90
23568;DHT22;11962;50.838;4.430;2023-11-19T02:26:14;14.70;99.90
23568;DHT22;11962;50.838;4.430;2023-11-19T02:28:43;14.60;99.90
23568;DHT22;11962;50.838;4.430;2023-11-19T02:31:10;14.50;99.90
23568;DHT22;11962;50.838;4.430;2023-11-19T02:33:39;14.50;99.90
23568;DHT22;11962;50.838;4.430;2023-11-19T02:36:05;14.50;99.90
23568;DHT22;11962;50.838;4.430;2023-11-19T02:38:33;14.50;99.90
23568;DHT22;11962;50.838;4.430;2023-11-19T02:40:58;14.50;99.90
23568;DHT22;11962;50.838;4.430;2023-11-19T02:43:24;14.50;99.90
23568;DHT22;11962;50.838;4.430;2023-11-19T02:45:50;14.60;99.90
23568;DHT22;11962;50.838;4.430;2023-11-19T02:48:16;14.50;99.90
23568;DHT22;11962;50.838;4.430;2023-11-19T02:50:42;14.50;99.90
23568;DHT22;11962;50.838;4.430;2023-11-19T02:53:08;14.60;99.90
23568;DHT22;11962;50.838;4.430;2023-11-19T02:55:34;14.50;99.90
23568;DHT22;11962;50.838;4.430;2023-11-19T02:58:04;14.60;99.90
23568;DHT22;11962;50.838;4.430;2023-11-19T03:00:35;14.60;99.90
23568;DHT22;11962;50.838;4.430;2023-11-19T03:03:03;14.50;99.90
23568;DHT22;11962;50.838;4.430;2023-11-19T03:05:48;14.50;99.90
23568;DHT22;11962;50.838;4.430;2023-11-19T03:08:17;14.50;99.90
23568;DHT22;11962;50.838;4.430;2023-11-19T03:10:43;14.50;99.90
23568;DHT22;11962;50.838;4.430;2023-11-19T03:13:13;14.40;99.90
23568;DHT22;11962;50.838;4.430;2023-11-19T03:15:44;14.40;99.90
23568;DHT22;11962;50.838;4.430;2023-11-19T03:18:10;14.30;99.90
23568;DHT22;11962;50.838;4.430;2023-11-19T03:20:36;14.30;99.90
23568;DHT22;11962;50.838;4.430;2023-11-19T03:23:02;14.20;99.90
23568;DHT22;11962;50.838;4.430;2023-11-19T03:25:28;14.10;99.90
23568;DHT22;11962;50.838;4.430;2023-11-19T03:27:59;14.10;99.90
23568;DHT22;11962;50.838;4.430;2023-11-19T03:30:26;14.00;99.90
23568;DHT22;11962;50.838;4.430;2023-11-19T03:32:52;13.90;99.90
23568;DHT22;11962;50.838;4.430;2023-11-19T03:35:17;14.00;99.90
23568;DHT22;11962;50.838;4.430;2023-11-19T03:37:43;13.90;99.90
23568;DHT22;11962;50.838;4.430;2023-11-19T03:40:09;13.80;99.90
23568;DHT22;11962;50.838;4.430;2023-11-19T03:42:38;13.80;99.90
23568;DHT22;11962;50.838;4.430;2023-11-19T03:45:06;13.80;99.90
23568;DHT22;11962;50.838;4.430;2023-11-19T03:47:34;13.70;99.90
23568;DHT22;11962;50.838;4.430;2023-11-19T03:50:01;13.70;99.90
23568;DHT22;11962;50.838;4.430;2023-11-19T03:52:27;13.70;99.90
23568;DHT22;11962;50.838;4.430;2023-11-19T03:54:52;13.70;99.90
23568;DHT22;11962;50.838;4.430;2023-11-19T03:57:21;13.70;99.90
23568;DHT22;11962;50.838;4.430;2023-11-19T03:59:47;13.70;99.90
23568;DHT22;11962;50.838;4.430;2023-11-19T04:02:12;13.60;99.90
23568;DHT22;11962;50.838;4.430;2023-11-19T04:04:38;13.60;99.90
23568;DHT22;11962;50.838;4.430;2023-11-19T04:07:05;13.60;99.90
23568;DHT22;11962;50.838;4.430;2023-11-19T04:09:31;13.60;99.90
23568;DHT22;11962;50.838;4.430;2023-11-19T04:12:00;13.50;99.90
23568;DHT22;11962;50.838;4.430;2023-11-19T04:14:26;13.60;99.90
23568;DHT22;11962;50.838;4.430;2023-11-19T04:16:52;13.60;99.90
23568;DHT22;11962;50.838;4.430;2023-11-19T04:19:21;13.60;99.90
23568;DHT22;11962;50.838;4.430;2023-11-19T04:21:47;13.60;99.90
23568;DHT22;11962;50.838;4.430;2023-11-19T04:24:13;13.60;99.90
23568;DHT22;11962;50.838;4.430;2023-11-19T04:26:46;13.60;99.90
23568;DHT22;11962;50.838;4.430;2023-11-19T04:29:16;13.60;99.90
23568;DHT22;11962;50.838;4.430;2023-11-19T04:31:43;13.60;99.90
23568;DHT22;11962;50.838;4.430;2023-11-19T04:34:12;13.60;99.90
23568;DHT22;11962;50.838;4.430;2023-11-19T04:36:38;13.50;99.90
23568;DHT22;11962;50.838;4.430;2023-11-19T04:39:05;13.50;99.90
23568;DHT22;11962;50.838;4.430;2023-11-19T04:41:48;13.60;99.90
23568;DHT22;11962;50.838;4.430;2023-11-19T04:44:15;13.50;99.90
23568;DHT22;11962;50.838;4.430;2023-11-19T04:46:41;13.50;99.90
23568;DHT22;11962;50.838;4.430;2023-11-19T04:49:09;13.50;99.90
23568;DHT22;11962;50.838;4.430;2023-11-19T04:51:43;13.50;99.90
23568;DHT22;11962;50.838;4.430;2023-11-19T04:54:09;13.50;99.90
23568;DHT22;11962;50.838;4.430;2023-11-19T04:56:39;13.50;99.90
23568;DHT22;11962;50.838;4.430;2023-11-19T04:59:05;13.50;99.90
23568;DHT22;11962;50.838;4.430;2023-11-19T05:01:34;13.60;99.90
23568;DHT22;11962;50.838;4.430;2023-11-19T05:04:01;13.70;99.90
23568;DHT22;11962;50.838;4.430;2023-11-19T05:06:28;13.70;99.90
23568;DHT22;11962;50.838;4.430;2023-11-19T05:08:55;13.80;99.90
23568;DHT22;11962;50.838;4.430;2023-11-19T05:11:21;13.80;99.90
23568;DHT22;11962;50.838;4.430;2023-11-19T05:13:46;13.90;99.90
23568;DHT22;11962;50.838;4.430;2023-11-19T05:16:12;13.80;99.90
23568;DHT22;11962;50.838;4.430;2023-11-19T05:18:42;13.70;99.90
23568;DHT22;11962;50.838;4.430;2023-11-19T05:21:08;13.70;99.90
23568;DHT22;11962;50.838;4.430;2023-11-19T05:23:34;13.60;99.90
23568;DHT22;11962;50.838;4.430;2023-11-19T05:26:01;13.50;99.90
23568;DHT22;11962;50.838;4.430;2023-11-19T05:28:27;13.50;99.90
23568;DHT22;11962;50.838;4.430;2023-11-19T05:30:52;13.40;99.90
23568;DHT22;11962;50.838;4.430;2023-11-19T05:33:18;13.40;99.90
23568;DHT22;11962;50.838;4.430;2023-11-19T05:35:44;13.40;99.90
23568;DHT22;11962;50.838;4.430;2023-11-19T05:38:09;13.30;99.90
23568;DHT22;11962;50.838;4.430;2023-11-19T05:40:35;13.30;99.90
23568;DHT22;11962;50.838;4.430;2023-11-19T05:43:01;13.40;99.90
23568;DHT22;11962;50.838;4.430;2023-11-19T05:45:27;13.40;99.90
23568;DHT22;11962;50.838;4.430;2023-11-19T05:47:53;13.40;99.90
23568;DHT22;11962;50.838;4.430;2023-11-19T05:50:19;13.50;99.90
23568;DHT22;11962;50.838;4.430;2023-11-19T05:52:44;13.50;99.90
23568;DHT22;11962;50.838;4.430;2023-11-19T05:55:10;13.50;99.90
23568;DHT22;11962;50.838;4.430;2023-11-19T05:57:39;13.50;99.90
23568;DHT22;11962;50.838;4.430;2023-11-19T06:00:08;13.40;99.90
23568;DHT22;11962;50.838;4.430;2023-11-19T06:02:36;13.40;99.90
23568;DHT22;11962;50.838;4.430;2023-11-19T06:05:04;13.30;99.90
23568;DHT22;11962;50.838;4.430;2023-11-19T06:07:33;13.30;99.90
23568;DHT22;11962;50.838;4.430;2023-11-19T06:09:59;13.20;99.90
23568;DHT22;11962;50.838;4.430;2023-11-19T06:12:24;13.20;99.90
23568;DHT22;11962;50.838;4.430;2023-11-19T06:14:53;13.20;99.90
23568;DHT22;11962;50.838;4.430;2023-11-19T06:17:18;13.10;99.90
23568;DHT22;11962;50.838;4.430;2023-11-19T06:19:44;13.00;99.90
23568;DHT22;11962;50.838;4.430;2023-11-19T06:22:10;13.00;99.90
23568;DHT22;11962;50.838;4.430;2023-11-19T06:24:36;13.00;99.90
23568;DHT22;11962;50.838;4.430;2023-11-19T06:27:03;13.10;99.90
23568;DHT22;11962;50.838;4.430;2023-11-19T06:29:29;13.00;99.90
23568;DHT22;11962;50.838;4.430;2023-11-19T06:31:55;13.00;99.90
23568;DHT22;11962;50.838;4.430;2023-11-19T06:34:21;12.90;99.90
23568;DHT22;11962;50.838;4.430;2023-11-19T06:36:47;12.90;99.90
23568;DHT22;11962;50.838;4.430;2023-11-19T06:39:14;12.80;99.90
23568;DHT22;11962;50.838;4.430;2023-11-19T06:41:45;12.80;99.90
23568;DHT22;11962;50.838;4.430;2023-11-19T06:44:10;12.80;99.90
23568;DHT22;11962;50.838;4.430;2023-11-19T06:46:36;12.80;99.90
23568;DHT22;11962;50.838;4.430;2023-11-19T06:49:02;12.80;99.90
23568;DHT22;11962;50.838;4.430;2023-11-19T06:51:28;12.80;99.90
23568;DHT22;11962;50.838;4.430;2023-11-19T06:53:55;12.90;99.90
23568;DHT22;11962;50.838;4.430;2023-11-19T06:56:22;12.90;99.90
23568;DHT22;11962;50.838;4.430;2023-11-19T06:58:49;12.80;99.90
23568;DHT22;11962;50.838;4.430;2023-11-19T07:01:18;12.80;99.90
23568;DHT22;11962;50.838;4.430;2023-11-19T07:03:47;12.70;99.90
23568;DHT22;11962;50.838;4.430;2023-11-19T07:06:13;12.80;99.90
23568;DHT22;11962;50.838;4.430;2023-11-19T07:08:41;12.70;99.90
23568;DHT22;11962;50.838;4.430;2023-11-19T07:11:06;12.70;99.90
23568;DHT22;11962;50.838;4.430;2023-11-19T07:13:35;12.70;99.90
23568;DHT22;11962;50.838;4.430;2023-11-19T07:16:01;12.70;99.90
23568;DHT22;11962;50.838;4.430;2023-11-19T07:18:26;12.80;99.90
23568;DHT22;11962;50.838;4.430;2023-11-19T07:20:52;12.90;99.90
23568;DHT22;11962;50.838;4.430;2023-11-19T07:23:19;13.00;99.90
23568;DHT22;11962;50.838;4.430;2023-11-19T07:25:44;13.00;99.90
23568;DHT22;11962;50.838;4.430;2023-11-19T07:28:12;13.00;99.90
23568;DHT22;11962;50.838;4.430;2023-11-19T07:30:38;13.10;99.90
23568;DHT22;11962;50.838;4.430;2023-11-19T07:33:04;13.10;99.90
23568;DHT22;11962;50.838;4.430;2023-11-19T07:35:31;13.10;99.90
23568;DHT22;11962;50.838;4.430;2023-11-19T07:37:57;13.20;99.90
23568;DHT22;11962;50.838;4.430;2023-11-19T07:40:24;13.30;99.90
23568;DHT22;11962;50.838;4.430;2023-11-19T07:42:50;13.30;99.90
23568;DHT22;11962;50.838;4.430;2023-11-19T07:45:19;13.30;99.90
23568;DHT22;11962;50.838;4.430;2023-11-19T07:47:44;13.30;99.90
23568;DHT22;11962;50.838;4.430;2023-11-19T07:50:10;13.30;99.90
23568;DHT22;11962;50.838;4.430;2023-11-19T07:52:37;13.30;99.90
23568;DHT22;11962;50.838;4.430;2023-11-19T07:55:03;13.40;99.90
23568;DHT22;11962;50.838;4.430;2023-11-19T07:57:30;13.40;99.90
23568;DHT22;11962;50.838;4.430;2023-11-19T07:59:57;13.50;99.90
23568;DHT22;11962;50.838;4.430;2023-11-19T08:02:23;13.50;99.90
23568;DHT22;11962;50.838;4.430;2023-11-19T08:04:49;13.60;99.90
23568;DHT22;11962;50.838;4.430;2023-11-19T08:07:23;13.70;99.90
23568;DHT22;11962;50.838;4.430;2023-11-19T08:09:49;13.70;99.90
23568;DHT22;11962;50.838;4.430;2023-11-19T08:12:14;13.80;99.90
23568;DHT22;11962;50.838;4.430;2023-11-19T08:14:42;13.80;99.90
23568;DHT22;11962;50.838;4.430;2023-11-19T08:17:09;13.80;99.90
23568;DHT22;11962;50.838;4.430;2023-11-19T08:19:35;13.90;99.90
23568;DHT22;11962;50.838;4.430;2023-11-19T08:22:00;14.00;99.90
23568;DHT22;11962;50.838;4.430;2023-11-19T08:24:26;14.10;99.90
23568;DHT22;11962;50.838;4.430;2023-11-19T08:26:52;14.20;99.90
23568;DHT22;11962;50.838;4.430;2023-11-19T08:29:18;14.20;99.90
23568;DHT22;11962;50.838;4.430;2023-11-19T08:31:43;14.20;99.90
23568;DHT22;11962;50.838;4.430;2023-11-19T08:34:10;14.30;99.90
23568;DHT22;11962;50.838;4.430;2023-11-19T08:36:37;14.60;99.90
23568;DHT22;11962;50.838;4.430;2023-11-19T08:39:03;14.80;99.90
23568;DHT22;11962;50.838;4.430;2023-11-19T08:41:29;14.90;99.90
23568;DHT22;11962;50.838;4.430;2023-11-19T08:43:54;14.90;99.90
23568;DHT22;11962;50.838;4.430;2023-11-19T08:46:20;15.00;99.90
23568;DHT22;11962;50.838;4.430;2023-11-19T08:48:46;14.90;99.90
23568;DHT22;11962;50.838;4.430;2023-11-19T08:51:12;14.80;99.90
23568;DHT22;11962;50.838;4.430;2023-11-19T08:53:38;14.70;99.90
23568;DHT22;11962;50.838;4.430;2023-11-19T08:56:04;14.50;99.90
23568;DHT22;11962;50.838;4.430;2023-11-19T08:58:30;14.40;99.90
23568;DHT22;11962;50.838;4.430;2023-11-19T09:00:56;14.40;99.90
23568;DHT22;11962;50.838;4.430;2023-11-19T09:03:23;14.40;99.90
23568;DHT22;11962;50.838;4.430;2023-11-19T09:05:49;14.60;99.90
23568;DHT22;11962;50.838;4.430;2023-11-19T09:08:15;14.80;99.90
23568;DHT22;11962;50.838;4.430;2023-11-19T09:10:40;15.10;99.90
23568;DHT22;11962;50.838;4.430;2023-11-19T09:13:06;15.10;99.90
23568;DHT22;11962;50.838;4.430;2023-11-19T09:15:32;15.20;99.90
23568;DHT22;11962;50.838;4.430;2023-11-19T09:17:57;15.20;99.90
23568;DHT22;11962;50.838;4.430;2023-11-19T09:20:23;15.10;99.90
23568;DHT22;11962;50.838;4.430;2023-11-19T09:22:49;15.10;99.90
23568;DHT22;11962;50.838;4.430;2023-11-19T09:25:15;15.10;99.90
23568;DHT22;11962;50.838;4.430;2023-11-19T09:27:45;15.30;99.90
23568;DHT22;11962;50.838;4.430;2023-11-19T09:30:11;15.40;99.90
23568;DHT22;11962;50.838;4.430;2023-11-19T09:32:38;16.20;99.90
23568;DHT22;11962;50.838;4.430;2023-11-19T09:35:04;17.70;99.90
23568;DHT22;11962;50.838;4.430;2023-11-19T09:37:31;18.30;99.90
23568;DHT22;11962;50.838;4.430;2023-11-19T09:39:57;18.70;99.90
23568;DHT22;11962;50.838;4.430;2023-11-19T09:42:24;19.10;99.90
23568;DHT22;11962;50.838;4.430;2023-11-19T09:44:50;20.00;99.90
23568;DHT22;11962;50.838;4.430;2023-11-19T09:47:17;21.20;99.90
23568;DHT22;11962;50.838;4.430;2023-11-19T09:49:44;22.40;99.90
23568;DHT22;11962;50.838;4.430;2023-11-19T09:52:10;23.20;99.90
23568;DHT22;11962;50.838;4.430;2023-11-19T09:54:36;23.40;99.90
23568;DHT22;11962;50.838;4.430;2023-11-19T09:57:02;23.10;99.90
23568;DHT22;11962;50.838;4.430;2023-11-19T09:59:33;22.40;99.90
23568;DHT22;11962;50.838;4.430;2023-11-19T10:01:59;21.70;99.90
23568;DHT22;11962;50.838;4.430;2023-11-19T10:04:26;22.20;99.90
23568;DHT22;11962;50.838;4.430;2023-11-19T10:06:54;23.20;99.90
23568;DHT22;11962;50.838;4.430;2023-11-19T10:09:20;23.90;99.90
23568;DHT22;11962;50.838;4.430;2023-11-19T10:11:46;24.40;99.90
23568;DHT22;11962;50.838;4.430;2023-11-19T10:14:13;24.80;99.90
23568;DHT22;11962;50.838;4.430;2023-11-19T10:16:40;24.90;99.90
23568;DHT22;11962;50.838;4.430;2023-11-19T10:19:06;24.60;99.90
23568;DHT22;11962;50.838;4.430;2023-11-19T10:21:33;23.80;99.90
23568;DHT22;11962;50.838;4.430;2023-11-19T10:23:59;23.10;99.90
23568;DHT22;11962;50.838;4.430;2023-11-19T10:26:26;22.70;99.90
23568;DHT22;11962;50.838;4.430;2023-11-19T10:28:52;22.20;99.90
23568;DHT22;11962;50.838;4.430;2023-11-19T10:31:20;22.20;99.90
23568;DHT22;11962;50.838;4.430;2023-11-19T10:33:50;22.50;99.90
23568;DHT22;11962;50.838;4.430;2023-11-19T10:36:17;22.70;99.90
23568;DHT22;11962;50.838;4.430;2023-11-19T10:38:53;22.10;99.90
23568;DHT22;11962;50.838;4.430;2023-11-19T10:41:29;21.30;99.90
23568;DHT22;11962;50.838;4.430;2023-11-19T10:43:56;20.90;99.90
23568;DHT22;11962;50.838;4.430;2023-11-19T10:46:22;20.60;99.90
23568;DHT22;11962;50.838;4.430;2023-11-19T10:48:52;20.40;99.90
23568;DHT22;11962;50.838;4.430;2023-11-19T10:51:19;20.20;99.90
23568;DHT22;11962;50.838;4.430;2023-11-19T10:53:49;19.80;99.90
23568;DHT22;11962;50.838;4.430;2023-11-19T10:56:20;19.30;99.90
23568;DHT22;11962;50.838;4.430;2023-11-19T10:58:51;19.20;99.90
23568;DHT22;11962;50.838;4.430;2023-11-19T11:01:22;20.10;99.90
23568;DHT22;11962;50.838;4.430;2023-11-19T11:03:51;20.90;99.90
23568;DHT22;11962;50.838;4.430;2023-11-19T11:06:19;20.90;99.90
23568;DHT22;11962;50.838;4.430;2023-11-19T11:08:46;20.60;99.90
23568;DHT22;11962;50.838;4.430;2023-11-19T11:11:16;20.60;99.90
23568;DHT22;11962;50.838;4.430;2023-11-19T11:13:47;19.90;99.90
23568;DHT22;11962;50.838;4.430;2023-11-19T11:16:15;19.30;99.90
23568;DHT22;11962;50.838;4.430;2023-11-19T11:18:45;18.80;99.90
23568;DHT22;11962;50.838;4.430;2023-11-19T11:21:15;18.30;99.90
23568;DHT22;11962;50.838;4.430;2023-11-19T11:37:32;17.00;99.90
23568;DHT22;11962;50.838;4.430;2023-11-19T11:39:58;17.10;99.90
23568;DHT22;11962;50.838;4.430;2023-11-19T11:45:02;17.10;99.90
23568;DHT22;11962;50.838;4.430;2023-11-19T11:50:26;17.40;99.90
23568;DHT22;11962;50.838;4.430;2023-11-19T11:55:27;17.50;99.90
23568;DHT22;11962;50.838;4.430;2023-11-19T11:57:56;17.50;99.90
23568;DHT22;11962;50.838;4.430;2023-11-19T12:00:41;17.50;99.90
23568;DHT22;11962;50.838;4.430;2023-11-19T12:03:11;17.50;99.90
23568;DHT22;11962;50.838;4.430;2023-11-19T12:05:44;17.70;99.90
23568;DHT22;11962;50.838;4.430;2023-11-19T12:08:12;17.60;99.90
23568;DHT22;11962;50.838;4.430;2023-11-19T12:10:50;17.60;99.90
23568;DHT22;11962;50.838;4.430;2023-11-19T12:13:18;17.50;99.90
23568;DHT22;11962;50.838;4.430;2023-11-19T12:18:27;17.40;99.90
23568;DHT22;11962;50.838;4.430;2023-11-19T12:20:56;17.30;99.90
23568;DHT22;11962;50.838;4.430;2023-11-19T12:23:28;17.20;99.90
23568;DHT22;11962;50.838;4.430;2023-11-19T12:25:54;17.00;99.90
23568;DHT22;11962;50.838;4.430;2023-11-19T12:28:20;16.90;99.90
23568;DHT22;11962;50.838;4.430;2023-11-19T12:30:46;16.70;99.90
23568;DHT22;11962;50.838;4.430;2023-11-19T12:33:13;16.60;99.90
23568;DHT22;11962;50.838;4.430;2023-11-19T12:35:44;16.60;99.90
23568;DHT22;11962;50.838;4.430;2023-11-19T12:38:22;16.50;99.90
23568;DHT22;11962;50.838;4.430;2023-11-19T12:41:08;16.40;99.90
23568;DHT22;11962;50.838;4.430;2023-11-19T12:43:36;16.30;99.90
23568;DHT22;11962;50.838;4.430;2023-11-19T12:46:16;16.20;99.90
23568;DHT22;11962;50.838;4.430;2023-11-19T12:48:42;16.10;99.90
23568;DHT22;11962;50.838;4.430;2023-11-19T12:51:08;16.20;99.90
23568;DHT22;11962;50.838;4.430;2023-11-19T12:53:51;16.20;99.90
23568;DHT22;11962;50.838;4.430;2023-11-19T12:56:22;16.20;99.90
23568;DHT22;11962;50.838;4.430;2023-11-19T12:58:48;16.20;99.90
23568;DHT22;11962;50.838;4.430;2023-11-19T13:01:17;16.20;99.90
23568;DHT22;11962;50.838;4.430;2023-11-19T13:03:43;16.30;99.90
23568;DHT22;11962;50.838;4.430;2023-11-19T13:06:13;16.20;99.90
23568;DHT22;11962;50.838;4.430;2023-11-19T13:08:44;16.30;99.90
23568;DHT22;11962;50.838;4.430;2023-11-19T13:11:11;16.30;99.90
23568;DHT22;11962;50.838;4.430;2023-11-19T13:16:21;16.30;99.90
23568;DHT22;11962;50.838;4.430;2023-11-19T13:18:47;16.30;99.90
23568;DHT22;11962;50.838;4.430;2023-11-19T13:21:13;16.30;99.90
23568;DHT22;11962;50.838;4.430;2023-11-19T13:23:39;16.30;99.90
23568;DHT22;11962;50.838;4.430;2023-11-19T13:26:04;16.30;99.90
23568;DHT22;11962;50.838;4.430;2023-11-19T13:28:31;16.40;99.90
23568;DHT22;11962;50.838;4.430;2023-11-19T13:30:56;16.40;99.90
23568;DHT22;11962;50.838;4.430;2023-11-19T13:33:23;16.40;99.90
23568;DHT22;11962;50.838;4.430;2023-11-19T13:35:49;16.50;99.90
23568;DHT22;11962;50.838;4.430;2023-11-19T13:38:14;16.50;99.90
23568;DHT22;11962;50.838;4.430;2023-11-19T13:40:40;16.40;99.90
23568;DHT22;11962;50.838;4.430;2023-11-19T13:43:06;16.40;99.90
23568;DHT22;11962;50.838;4.430;2023-11-19T13:45:32;16.30;99.90
23568;DHT22;11962;50.838;4.430;2023-11-19T13:47:58;16.30;99.90
23568;DHT22;11962;50.838;4.430;2023-11-19T13:50:24;16.20;99.90
23568;DHT22;11962;50.838;4.430;2023-11-19T13:52:50;16.10;99.90
23568;DHT22;11962;50.838;4.430;2023-11-19T13:55:16;16.10;99.90
23568;DHT22;11962;50.838;4.430;2023-11-19T13:57:42;16.00;99.90
23568;DHT22;11962;50.838;4.430;2023-11-19T14:00:10;15.90;99.90
23568;DHT22;11962;50.838;4.430;2023-11-19T14:02:39;15.80;99.90
23568;DHT22;11962;50.838;4.430;2023-11-19T14:05:06;15.70;99.90
23568;DHT22;11962;50.838;4.430;2023-11-19T14:07:32;15.60;99.90
23568;DHT22;11962;50.838;4.430;2023-11-19T14:09:58;15.60;99.90
23568;DHT22;11962;50.838;4.430;2023-11-19T14:12:24;15.60;99.90
23568;DHT22;11962;50.838;4.430;2023-11-19T14:14:49;15.60;99.90
23568;DHT22;11962;50.838;4.430;2023-11-19T14:17:15;15.60;99.90
23568;DHT22;11962;50.838;4.430;2023-11-19T14:19:42;15.60;99.90
23568;DHT22;11962;50.838;4.430;2023-11-19T14:22:08;15.60;99.90
23568;DHT22;11962;50.838;4.430;2023-11-19T14:24:34;15.60;99.90
23568;DHT22;11962;50.838;4.430;2023-11-19T14:27:00;15.50;99.90
23568;DHT22;11962;50.838;4.430;2023-11-19T14:29:26;15.50;99.90
23568;DHT22;11962;50.838;4.430;2023-11-19T14:31:53;15.50;99.90
23568;DHT22;11962;50.838;4.430;2023-11-19T14:34:20;15.40;99.90
23568;DHT22;11962;50.838;4.430;2023-11-19T14:36:46;15.30;99.90
23568;DHT22;11962;50.838;4.430;2023-11-19T14:39:13;15.20;99.90
23568;DHT22;11962;50.838;4.430;2023-11-19T14:41:38;15.10;99.90
23568;DHT22;11962;50.838;4.430;2023-11-19T14:44:05;15.00;99.90
23568;DHT22;11962;50.838;4.430;2023-11-19T14:46:31;14.90;99.90
23568;DHT22;11962;50.838;4.430;2023-11-19T14:48:57;15.00;99.90
23568;DHT22;11962;50.838;4.430;2023-11-19T14:51:22;15.00;99.90
23568;DHT22;11962;50.838;4.430;2023-11-19T14:53:48;15.00;99.90
23568;DHT22;11962;50.838;4.430;2023-11-19T14:56:14;15.00;99.90
23568;DHT22;11962;50.838;4.430;2023-11-19T14:58:40;14.90;99.90
23568;DHT22;11962;50.838;4.430;2023-11-19T15:01:07;14.90;99.90
23568;DHT22;11962;50.838;4.430;2023-11-19T15:03:36;14.90;99.90
23568;DHT22;11962;50.838;4.430;2023-11-19T15:06:02;15.00;99.90
23568;DHT22;11962;50.838;4.430;2023-11-19T15:08:28;14.90;99.90
23568;DHT22;11962;50.838;4.430;2023-11-19T15:10:54;14.90;99.90
23568;DHT22;11962;50.838;4.430;2023-11-19T15:13:19;14.90;99.90
23568;DHT22;11962;50.838;4.430;2023-11-19T15:15:45;14.80;99.90
23568;DHT22;11962;50.838;4.430;2023-11-19T15:18:11;14.90;99.90
23568;DHT22;11962;50.838;4.430;2023-11-19T15:20:36;14.80;99.90
23568;DHT22;11962;50.838;4.430;2023-11-19T15:23:02;14.80;99.90
23568;DHT22;11962;50.838;4.430;2023-11-19T15:25:31;14.80;99.90
23568;DHT22;11962;50.838;4.430;2023-11-19T15:27:56;14.80;99.90
23568;DHT22;11962;50.838;4.430;2023-11-19T15:30:22;14.80;99.90
23568;DHT22;11962;50.838;4.430;2023-11-19T15:32:48;14.80;99.90
23568;DHT22;11962;50.838;4.430;2023-11-19T15:35:13;14.70;99.90
23568;DHT22;11962;50.838;4.430;2023-11-19T15:37:39;14.70;99.90
23568;DHT22;11962;50.838;4.430;2023-11-19T15:40:09;14.80;99.90
23568;DHT22;11962;50.838;4.430;2023-11-19T15:42:38;14.80;99.90
23568;DHT22;11962;50.838;4.430;2023-11-19T15:45:05;14.70;99.90
23568;DHT22;11962;50.838;4.430;2023-11-19T15:47:33;14.70;99.90
23568;DHT22;11962;50.838;4.430;2023-11-19T15:50:01;14.80;99.90
23568;DHT22;11962;50.838;4.430;2023-11-19T15:52:28;14.70;99.90
23568;DHT22;11962;50.838;4.430;2023-11-19T15:54:55;14.70;99.90
23568;DHT22;11962;50.838;4.430;2023-11-19T15:57:21;14.70;99.90